Time;durP1;ratioP1;P1;durP2;ratioP2;P2;SDS_P1;SDS_P2;PMS_P1;PMS_P2;Temp;Humidity;BMP_temperature;BMP_pressure;BME280_temperature;BME280_humidity;BME280_pressure;Samples;Min_cycle;Max_cycle;Signal;HPM_P1;HPM_P2
2021/07/14 00:00:58;;;;;;;5.55;3.63;;;;;;;;;;1484440;40;20029;-59
2021/07/14 00:01:59;;;;;;;4.93;3.58;;;;;;;;;;1484501;40;20142;-58
2021/07/14 00:03:01;;;;;;;5.72;3.53;;;;;;;;;;1484521;40;20158;-58
2021/07/14 00:04:02;;;;;;;8.95;4.05;;;;;;;;;;1484408;40;20025;-58
2021/07/14 00:05:25;;;;;;;8.43;3.72;;;;;;;;;;1483967;40;20025;-58
2021/07/14 00:06:25;;;;;;;6.20;3.60;;;;;;;;;;1484075;40;20017;-58
2021/07/14 00:07:27;;;;;;;4.93;3.47;;;;;;;;;;1484402;40;20028;-58
2021/07/14 00:08:28;;;;;;;5.68;3.50;;;;;;;;;;1484348;40;20389;-58
2021/07/14 00:09:30;;;;;;;5.43;3.70;;;;;;;;;;1484398;40;20028;-58
2021/07/14 00:10:31;;;;;;;8.57;3.63;;;;;;;;;;1484297;40;20028;-58
2021/07/14 00:11:39;;;;;;;7.18;3.75;;;;;;;;;;1484454;40;20069;-58
2021/07/14 00:12:47;;;;;;;5.78;3.88;;;;;;;;;;1484291;40;20147;-59
2021/07/14 00:14:03;;;;;;;9.30;4.20;;;;;;;;;;1484292;40;20025;-59
2021/07/14 00:22:06;;;;;;;7.28;3.50;;;;;;;;;;1484207;40;20024;-58
2021/07/14 00:22:09;;;;;;;6.95;3.78;;;;;;;;;;1484278;40;20041;-58
2021/07/14 00:23:10;;;;;;;8.80;4.05;;;;;;;;;;1483744;40;20029;-58
2021/07/14 00:24:12;;;;;;;5.75;3.72;;;;;;;;;;1483876;40;20029;-58
2021/07/14 00:25:14;;;;;;;5.88;3.95;;;;;;;;;;1484270;40;20300;-58
2021/07/14 00:26:15;;;;;;;6.97;3.80;;;;;;;;;;1484418;40;20055;-59
2021/07/14 00:27:19;;;;;;;5.00;3.78;;;;;;;;;;1484216;40;20468;-58
2021/07/14 00:28:21;;;;;;;5.93;3.80;;;;;;;;;;1484208;40;20065;-58
2021/07/14 00:29:22;;;;;;;5.80;3.00;;;;;;;;;;1484205;40;20041;-58
2021/07/14 00:30:26;;;;;;;6.50;3.20;;;;;;;;;;1484377;40;20021;-58
2021/07/14 00:31:27;;;;;;;6.70;3.60;;;;;;;;;;1484263;40;20025;-58
2021/07/14 00:32:29;;;;;;;4.40;3.30;;;;;;;;;;1484368;40;20029;-58
2021/07/14 00:33:30;;;;;;;7.25;3.45;;;;;;;;;;1484201;40;20037;-58
2021/07/14 00:34:32;;;;;;;8.48;3.50;;;;;;;;;;1484272;40;20110;-58
2021/07/14 00:35:34;;;;;;;5.70;3.63;;;;;;;;;;1484233;40;20025;-58
2021/07/14 00:36:36;;;;;;;4.90;3.20;;;;;;;;;;1484261;40;20036;-58
2021/07/14 00:37:37;;;;;;;5.50;3.25;;;;;;;;;;1484274;40;20025;-58
2021/07/14 00:38:39;;;;;;;7.82;3.53;;;;;;;;;;1484470;40;20025;-58
2021/07/14 00:39:40;;;;;;;6.97;3.60;;;;;;;;;;1484205;40;20024;-58
2021/07/14 00:40:42;;;;;;;4.43;3.30;;;;;;;;;;1484232;40;20312;-58
2021/07/14 00:41:43;;;;;;;5.07;3.17;;;;;;;;;;1484296;40;20017;-59
2021/07/14 00:42:46;;;;;;;6.07;3.17;;;;;;;;;;1484238;40;20029;-58
2021/07/14 00:43:47;;;;;;;6.57;3.15;;;;;;;;;;1484272;40;20064;-58
2021/07/14 00:44:49;;;;;;;5.22;3.50;;;;;;;;;;1484923;40;20032;-58
2021/07/14 00:45:50;;;;;;;7.60;3.40;;;;;;;;;;1484960;40;20025;-60
2021/07/14 00:46:53;;;;;;;6.57;3.45;;;;;;;;;;1484840;40;20025;-58
2021/07/14 00:47:57;;;;;;;6.53;3.83;;;;;;;;;;1485034;40;20025;-58
2021/07/14 00:49:00;;;;;;;6.25;3.58;;;;;;;;;;1485048;40;20021;-58
2021/07/14 00:50:02;;;;;;;6.75;3.60;;;;;;;;;;1484853;40;20304;-58
2021/07/14 00:51:07;;;;;;;9.60;3.70;;;;;;;;;;1484895;40;20122;-57
2021/07/14 00:52:08;;;;;;;6.78;3.63;;;;;;;;;;1484913;40;20415;-57
2021/07/14 00:53:09;;;;;;;6.68;3.42;;;;;;;;;;1485098;40;20024;-58
2021/07/14 00:54:10;;;;;;;6.60;3.95;;;;;;;;;;1485018;40;20025;-58
2021/07/14 00:55:12;;;;;;;6.18;3.85;;;;;;;;;;1484910;40;20021;-58
2021/07/14 00:56:14;;;;;;;7.05;3.40;;;;;;;;;;1484958;40;20027;-58
2021/07/14 00:57:18;;;;;;;7.90;3.65;;;;;;;;;;1484964;40;20021;-58
2021/07/14 00:58:20;;;;;;;5.15;3.08;;;;;;;;;;1484874;40;20030;-58
2021/07/14 00:59:22;;;;;;;7.63;3.55;;;;;;;;;;1485016;40;20028;-58
2021/07/14 01:00:23;;;;;;;4.68;3.20;;;;;;;;;;1484790;40;20029;-59
2021/07/14 01:01:25;;;;;;;6.00;3.28;;;;;;;;;;1484967;40;20037;-58
2021/07/14 01:02:26;;;;;;;6.55;2.72;;;;;;;;;;1484835;40;20032;-60
2021/07/14 01:03:32;;;;;;;6.43;3.10;;;;;;;;;;1484523;40;20028;-58
2021/07/14 01:04:37;;;;;;;9.27;3.22;;;;;;;;;;1484457;40;20025;-58
2021/07/14 01:05:42;;;;;;;6.93;3.17;;;;;;;;;;1484936;40;20033;-58
2021/07/14 01:06:49;;;;;;;8.73;3.20;;;;;;;;;;1484912;40;20067;-59
2021/07/14 01:07:55;;;;;;;3.72;2.65;;;;;;;;;;1485038;40;20343;-59
2021/07/14 01:09:01;;;;;;;4.70;3.00;;;;;;;;;;1485232;40;20022;-58
2021/07/14 01:10:06;;;;;;;5.63;2.95;;;;;;;;;;1485193;40;20292;-58
2021/07/14 01:11:10;;;;;;;5.78;2.90;;;;;;;;;;1485000;40;20059;-58
2021/07/14 01:12:16;;;;;;;8.75;2.95;;;;;;;;;;1484961;40;20032;-58
2021/07/14 01:13:24;;;;;;;5.05;2.90;;;;;;;;;;1484867;40;20024;-58
2021/07/14 01:14:39;;;;;;;6.30;3.00;;;;;;;;;;1484989;40;20025;-58
2021/07/14 01:15:46;;;;;;;5.82;2.70;;;;;;;;;;1484812;40;20028;-58
2021/07/14 01:16:52;;;;;;;4.90;2.38;;;;;;;;;;1485066;40;20036;-58
2021/07/14 01:17:57;;;;;;;4.63;2.72;;;;;;;;;;1484880;40;20025;-58
2021/07/14 01:19:06;;;;;;;4.82;2.40;;;;;;;;;;1484946;40;20033;-58
2021/07/14 01:20:26;;;;;;;4.95;2.70;;;;;;;;;;1484805;40;20025;-58
2021/07/14 01:21:33;;;;;;;7.90;2.72;;;;;;;;;;1484990;40;20061;-58
2021/07/14 01:22:45;;;;;;;6.20;2.70;;;;;;;;;;1484792;40;20021;-58
2021/07/14 01:23:55;;;;;;;4.75;2.95;;;;;;;;;;1485058;40;20017;-58
2021/07/14 01:25:03;;;;;;;7.00;2.55;;;;;;;;;;1484917;40;20036;-58
2021/07/14 01:26:12;;;;;;;4.53;2.70;;;;;;;;;;1485022;40;20025;-58
2021/07/14 01:27:16;;;;;;;5.40;2.95;;;;;;;;;;1484957;40;20024;-60
2021/07/14 01:28:19;;;;;;;7.22;2.92;;;;;;;;;;1484946;40;20021;-58
2021/07/14 01:29:21;;;;;;;6.18;2.75;;;;;;;;;;1484903;40;20033;-58
2021/07/14 01:30:23;;;;;;;5.90;2.88;;;;;;;;;;1484866;40;20073;-58
2021/07/14 01:31:24;;;;;;;4.68;3.05;;;;;;;;;;1484837;40;20028;-57
2021/07/14 01:32:30;;;;;;;8.00;3.13;;;;;;;;;;1485003;40;20106;-58
2021/07/14 01:33:32;;;;;;;4.40;2.55;;;;;;;;;;1484758;40;20029;-58
2021/07/14 01:34:37;;;;;;;5.50;2.72;;;;;;;;;;1484669;40;20051;-58
2021/07/14 01:35:42;;;;;;;6.05;2.60;;;;;;;;;;1484760;40;20025;-58
2021/07/14 01:36:46;;;;;;;3.78;2.83;;;;;;;;;;1485188;40;20033;-58
2021/07/14 01:37:48;;;;;;;4.05;2.50;;;;;;;;;;1484905;40;20391;-58
2021/07/14 01:38:50;;;;;;;5.57;2.65;;;;;;;;;;1484768;40;20106;-58
2021/07/14 01:39:52;;;;;;;4.18;2.40;;;;;;;;;;1484750;40;20025;-58
2021/07/14 01:40:56;;;;;;;5.47;2.92;;;;;;;;;;1484700;40;20039;-58
2021/07/14 01:42:00;;;;;;;4.38;2.88;;;;;;;;;;1484798;40;20035;-58
2021/07/14 01:43:04;;;;;;;4.28;2.90;;;;;;;;;;1484743;40;20065;-58
2021/07/14 01:44:07;;;;;;;4.85;2.40;;;;;;;;;;1484827;40;20323;-58
2021/07/14 01:45:10;;;;;;;4.13;2.50;;;;;;;;;;1484134;40;20025;-58
2021/07/14 01:46:12;;;;;;;3.85;2.60;;;;;;;;;;1484216;40;20032;-59
2021/07/14 01:47:14;;;;;;;5.15;2.90;;;;;;;;;;1484699;40;20040;-59
2021/07/14 01:48:16;;;;;;;4.20;2.60;;;;;;;;;;1484792;40;20020;-58
2021/07/14 01:49:19;;;;;;;4.18;2.67;;;;;;;;;;1484863;40;20032;-58
2021/07/14 01:50:21;;;;;;;5.53;2.80;;;;;;;;;;1484728;40;20032;-58
2021/07/14 01:51:25;;;;;;;7.03;3.00;;;;;;;;;;1484859;40;20065;-59
2021/07/14 01:52:28;;;;;;;5.10;2.70;;;;;;;;;;1484877;40;20025;-58
2021/07/14 01:53:31;;;;;;;7.38;2.92;;;;;;;;;;1484827;40;20032;-59
2021/07/14 01:54:32;;;;;;;4.70;2.35;;;;;;;;;;1484785;40;20021;-58
2021/07/14 01:55:38;;;;;;;4.53;2.67;;;;;;;;;;1484847;40;20079;-58
2021/07/14 01:56:39;;;;;;;6.47;2.60;;;;;;;;;;1484441;40;20021;-58
2021/07/14 01:57:41;;;;;;;4.68;2.40;;;;;;;;;;1484854;40;20035;-58
2021/07/14 01:58:46;;;;;;;4.93;2.58;;;;;;;;;;1484808;40;20395;-58
2021/07/14 01:59:49;;;;;;;4.03;2.47;;;;;;;;;;1484782;40;20145;-59
2021/07/14 02:00:52;;;;;;;6.07;2.63;;;;;;;;;;1484617;40;20036;-58
2021/07/14 02:01:55;;;;;;;4.32;2.85;;;;;;;;;;1484823;40;20028;-58
2021/07/14 02:03:05;;;;;;;6.97;2.90;;;;;;;;;;1484831;40;20020;-58
2021/07/14 02:05:28;;;;;;;4.97;2.88;;;;;;;;;;1484785;40;20029;-58
2021/07/14 02:06:29;;;;;;;6.25;3.22;;;;;;;;;;1484737;40;20025;-58
2021/07/14 02:07:32;;;;;;;5.55;2.90;;;;;;;;;;1484885;40;20024;-58
2021/07/14 02:08:37;;;;;;;6.32;3.15;;;;;;;;;;1484607;40;20021;-58
2021/07/14 02:09:40;;;;;;;4.30;2.72;;;;;;;;;;1484273;40;20114;-58
2021/07/14 02:10:43;;;;;;;6.78;3.05;;;;;;;;;;1484229;40;20029;-58
2021/07/14 02:11:48;;;;;;;5.63;3.00;;;;;;;;;;1484876;40;20082;-58
2021/07/14 02:12:51;;;;;;;8.15;3.50;;;;;;;;;;1484809;40;20029;-58
2021/07/14 02:13:56;;;;;;;8.60;3.60;;;;;;;;;;1484809;40;20028;-58
2021/07/14 02:15:00;;;;;;;10.40;3.38;;;;;;;;;;1484753;40;20025;-58
2021/07/14 02:16:02;;;;;;;6.60;3.45;;;;;;;;;;1484696;40;20021;-58
2021/07/14 02:17:11;;;;;;;5.32;3.28;;;;;;;;;;1484745;40;20021;-59
2021/07/14 02:18:15;;;;;;;6.63;2.90;;;;;;;;;;1484709;40;20036;-58
2021/07/14 02:19:18;;;;;;;4.82;3.10;;;;;;;;;;1484722;40;20036;-60
2021/07/14 02:20:21;;;;;;;7.15;3.10;;;;;;;;;;1484617;40;20021;-60
2021/07/14 02:21:22;;;;;;;4.85;2.70;;;;;;;;;;1484714;40;20036;-58
2021/07/14 02:22:24;;;;;;;5.05;3.10;;;;;;;;;;1484780;40;20021;-58
2021/07/14 02:23:24;;;;;;;6.55;2.60;;;;;;;;;;1484605;40;20275;-58
2021/07/14 02:24:27;;;;;;;4.38;2.80;;;;;;;;;;1484712;40;20079;-58
2021/07/14 02:25:27;;;;;;;4.00;2.80;;;;;;;;;;1484717;40;20029;-58
2021/07/14 02:26:30;;;;;;;5.60;2.72;;;;;;;;;;1484763;40;20017;-58
2021/07/14 02:27:32;;;;;;;8.65;3.20;;;;;;;;;;1484196;40;20053;-58
2021/07/14 02:28:33;;;;;;;6.68;3.28;;;;;;;;;;1484086;40;20107;-58
2021/07/14 02:29:38;;;;;;;4.60;2.92;;;;;;;;;;1484648;40;20285;-58
2021/07/14 02:30:41;;;;;;;5.00;2.50;;;;;;;;;;1484891;40;20076;-58
2021/07/14 02:31:41;;;;;;;4.07;2.50;;;;;;;;;;1484569;40;20397;-58
2021/07/14 02:32:44;;;;;;;4.25;2.50;;;;;;;;;;1484596;40;20032;-58
2021/07/14 02:33:45;;;;;;;3.90;2.55;;;;;;;;;;1484690;40;20036;-56
2021/07/14 02:34:48;;;;;;;8.80;3.28;;;;;;;;;;1484811;40;20017;-58
2021/07/14 02:35:51;;;;;;;6.55;3.85;;;;;;;;;;1484614;40;20031;-58
2021/07/14 02:36:54;;;;;;;4.60;2.80;;;;;;;;;;1484889;40;20073;-58
2021/07/14 02:37:59;;;;;;;8.02;3.10;;;;;;;;;;1484704;40;20024;-58
2021/07/14 02:39:05;;;;;;;9.65;3.30;;;;;;;;;;1484732;40;20440;-58
2021/07/14 02:40:07;;;;;;;4.38;2.70;;;;;;;;;;1484642;40;20029;-58
2021/07/14 02:41:14;;;;;;;7.65;2.92;;;;;;;;;;1484625;40;20031;-58
2021/07/14 02:42:28;;;;;;;5.05;2.83;;;;;;;;;;1484687;40;20404;-58
2021/07/14 02:43:30;;;;;;;4.40;2.63;;;;;;;;;;1484655;40;20041;-58
2021/07/14 02:44:39;;;;;;;6.53;2.78;;;;;;;;;;1484693;40;20085;-58
2021/07/14 02:45:44;;;;;;;7.28;2.80;;;;;;;;;;1484700;40;20293;-58
2021/07/14 02:46:48;;;;;;;5.35;3.10;;;;;;;;;;1484739;40;20025;-58
2021/07/14 02:47:50;;;;;;;4.65;3.33;;;;;;;;;;1484506;40;20054;-58
2021/07/14 02:48:54;;;;;;;7.60;3.40;;;;;;;;;;1484777;40;20029;-58
2021/07/14 02:49:56;;;;;;;7.05;2.78;;;;;;;;;;1484550;40;20428;-58
2021/07/14 02:51:00;;;;;;;7.97;3.10;;;;;;;;;;1483996;40;20359;-58
2021/07/14 02:52:02;;;;;;;6.05;2.80;;;;;;;;;;1484103;40;20024;-58
2021/07/14 02:53:08;;;;;;;4.45;2.92;;;;;;;;;;1484684;40;20385;-57
2021/07/14 02:54:16;;;;;;;4.30;2.85;;;;;;;;;;1484558;40;20028;-58
2021/07/14 02:55:20;;;;;;;5.65;2.70;;;;;;;;;;1484727;40;20025;-58
2021/07/14 02:56:23;;;;;;;5.18;3.05;;;;;;;;;;1484659;40;20025;-58
2021/07/14 02:57:27;;;;;;;6.03;3.20;;;;;;;;;;1484684;40;20061;-58
2021/07/14 02:58:31;;;;;;;5.55;3.20;;;;;;;;;;1485041;40;20051;-58
2021/07/14 02:59:36;;;;;;;8.02;3.35;;;;;;;;;;1484646;40;20385;-58
2021/07/14 03:00:38;;;;;;;9.27;3.40;;;;;;;;;;1484469;40;20027;-58
2021/07/14 03:01:44;;;;;;;4.88;2.80;;;;;;;;;;1484725;40;20028;-58
2021/07/14 03:02:46;;;;;;;6.50;2.90;;;;;;;;;;1484639;40;20025;-58
2021/07/14 03:03:50;;;;;;;3.97;2.83;;;;;;;;;;1484699;40;20029;-58
2021/07/14 03:04:52;;;;;;;4.85;2.78;;;;;;;;;;1484603;40;20027;-58
2021/07/14 03:05:56;;;;;;;3.67;2.70;;;;;;;;;;1484673;40;20028;-58
2021/07/14 03:07:02;;;;;;;5.85;3.38;;;;;;;;;;1484753;40;20024;-58
2021/07/14 03:08:10;;;;;;;6.55;3.35;;;;;;;;;;1484419;40;20036;-58
2021/07/14 03:09:12;;;;;;;5.50;3.17;;;;;;;;;;1484660;40;20323;-58
2021/07/14 03:10:17;;;;;;;5.60;3.10;;;;;;;;;;1484823;40;20040;-58
2021/07/14 03:11:18;;;;;;;5.93;3.17;;;;;;;;;;1484677;40;20281;-58
2021/07/14 03:12:22;;;;;;;5.07;3.30;;;;;;;;;;1484822;40;20029;-58
2021/07/14 03:13:24;;;;;;;8.10;3.33;;;;;;;;;;1484519;40;20411;-58
2021/07/14 03:14:28;;;;;;;5.53;3.00;;;;;;;;;;1484663;40;20024;-58
2021/07/14 03:15:29;;;;;;;5.03;2.80;;;;;;;;;;1484458;40;20032;-58
2021/07/14 03:16:33;;;;;;;5.78;2.70;;;;;;;;;;1484499;40;20035;-58
2021/07/14 03:17:37;;;;;;;4.32;2.75;;;;;;;;;;1484546;40;20380;-58
2021/07/14 03:18:41;;;;;;;5.20;2.83;;;;;;;;;;1484748;40;20035;-58
2021/07/14 03:19:44;;;;;;;4.97;2.72;;;;;;;;;;1484501;40;20048;-58
2021/07/14 03:20:47;;;;;;;4.97;2.92;;;;;;;;;;1484491;40;20055;-58
2021/07/14 03:21:49;;;;;;;4.65;2.80;;;;;;;;;;1484669;40;20281;-58
2021/07/14 03:22:52;;;;;;;6.10;3.00;;;;;;;;;;1484628;40;20362;-58
2021/07/14 03:23:54;;;;;;;6.03;3.55;;;;;;;;;;1484439;40;20384;-58
2021/07/14 03:24:57;;;;;;;5.43;2.85;;;;;;;;;;1484555;40;20020;-58
2021/07/14 03:26:00;;;;;;;4.75;2.88;;;;;;;;;;1484547;40;20036;-58
2021/07/14 03:27:03;;;;;;;5.57;3.08;;;;;;;;;;1484520;40;20028;-58
2021/07/14 03:28:06;;;;;;;7.95;3.25;;;;;;;;;;1484782;40;20061;-58
2021/07/14 03:29:08;;;;;;;4.10;2.83;;;;;;;;;;1484510;40;20025;-58
2021/07/14 03:30:11;;;;;;;6.45;3.20;;;;;;;;;;1484544;40;20070;-58
2021/07/14 03:31:13;;;;;;;6.22;3.10;;;;;;;;;;1484591;40;20025;-58
2021/07/14 03:32:15;;;;;;;7.20;3.60;;;;;;;;;;1484614;40;20029;-58
2021/07/14 03:33:17;;;;;;;7.05;3.35;;;;;;;;;;1484503;40;20025;-58
2021/07/14 03:34:19;;;;;;;7.88;3.35;;;;;;;;;;1484596;40;20036;-58
2021/07/14 03:35:20;;;;;;;4.60;2.97;;;;;;;;;;1484397;40;20296;-59
2021/07/14 03:36:22;;;;;;;6.70;2.90;;;;;;;;;;1484644;40;20035;-58
2021/07/14 03:37:24;;;;;;;5.72;2.80;;;;;;;;;;1484595;40;20051;-57
2021/07/14 03:38:27;;;;;;;4.80;2.90;;;;;;;;;;1484756;40;20040;-58
2021/07/14 03:39:28;;;;;;;6.15;2.42;;;;;;;;;;1484505;40;20024;-58
2021/07/14 03:40:32;;;;;;;4.05;2.70;;;;;;;;;;1484740;40;20025;-58
2021/07/14 03:41:33;;;;;;;6.65;3.83;;;;;;;;;;1484399;40;20047;-58
2021/07/14 03:42:38;;;;;;;5.35;3.03;;;;;;;;;;1484593;40;20037;-58
2021/07/14 03:43:39;;;;;;;4.53;3.42;;;;;;;;;;1484525;40;20020;-58
2021/07/14 03:44:42;;;;;;;6.43;3.35;;;;;;;;;;1484517;40;20281;-58
2021/07/14 03:45:44;;;;;;;5.63;3.53;;;;;;;;;;1484462;40;20021;-58
2021/07/14 03:46:46;;;;;;;5.35;3.15;;;;;;;;;;1484722;40;20028;-58
2021/07/14 03:47:48;;;;;;;6.00;3.40;;;;;;;;;;1484411;40;20020;-58
2021/07/14 03:48:52;;;;;;;7.00;3.03;;;;;;;;;;1484506;40;20031;-58
2021/07/14 03:49:54;;;;;;;6.65;3.30;;;;;;;;;;1484405;40;20292;-58
2021/07/14 03:50:58;;;;;;;6.40;3.28;;;;;;;;;;1484691;40;20065;-58
2021/07/14 03:51:59;;;;;;;7.40;3.40;;;;;;;;;;1484365;40;20074;-58
2021/07/14 03:53:03;;;;;;;3.42;2.72;;;;;;;;;;1484448;40;20025;-58
2021/07/14 03:54:04;;;;;;;4.80;3.08;;;;;;;;;;1484331;40;20036;-59
2021/07/14 03:55:09;;;;;;;5.57;3.25;;;;;;;;;;1484431;40;20020;-58
2021/07/14 03:56:10;;;;;;;5.68;2.80;;;;;;;;;;1484384;40;20036;-58
2021/07/14 03:57:12;;;;;;;5.38;3.10;;;;;;;;;;1484566;40;20029;-58
2021/07/14 03:58:14;;;;;;;4.47;2.83;;;;;;;;;;1484534;40;20028;-58
2021/07/14 03:59:16;;;;;;;5.22;2.63;;;;;;;;;;1484640;40;20029;-58
2021/07/14 04:00:17;;;;;;;8.23;2.78;;;;;;;;;;1484463;40;20024;-58
2021/07/14 04:01:19;;;;;;;4.20;2.35;;;;;;;;;;1484404;40;20296;-58
2021/07/14 04:02:21;;;;;;;4.05;2.60;;;;;;;;;;1484388;40;20021;-58
2021/07/14 04:03:26;;;;;;;3.38;2.42;;;;;;;;;;1484683;40;20029;-58
2021/07/14 04:04:28;;;;;;;4.43;2.58;;;;;;;;;;1484484;40;20028;-58
2021/07/14 04:05:30;;;;;;;3.22;2.25;;;;;;;;;;1484430;40;20377;-58
2021/07/14 04:06:34;;;;;;;4.93;2.70;;;;;;;;;;1484440;40;20032;-58
2021/07/14 04:07:38;;;;;;;4.25;2.35;;;;;;;;;;1484412;40;20397;-58
2021/07/14 04:08:43;;;;;;;3.60;2.50;;;;;;;;;;1484377;40;20384;-58
2021/07/14 04:09:45;;;;;;;3.72;2.40;;;;;;;;;;1484580;40;20021;-58
2021/07/14 04:10:46;;;;;;;6.25;2.67;;;;;;;;;;1484402;40;20028;-58
2021/07/14 04:11:54;;;;;;;4.47;2.65;;;;;;;;;;1484519;40;20061;-58
2021/07/14 04:12:56;;;;;;;3.63;2.25;;;;;;;;;;1484314;40;20025;-59
2021/07/14 04:13:57;;;;;;;4.80;2.95;;;;;;;;;;1484576;40;20028;-58
2021/07/14 04:14:58;;;;;;;4.57;2.60;;;;;;;;;;1484461;40;20032;-58
2021/07/14 04:16:00;;;;;;;4.47;2.53;;;;;;;;;;1484425;40;20381;-58
2021/07/14 04:17:01;;;;;;;5.13;2.67;;;;;;;;;;1484276;40;20292;-58
2021/07/14 04:18:05;;;;;;;4.65;2.30;;;;;;;;;;1484567;40;20031;-58
2021/07/14 04:19:06;;;;;;;5.40;2.40;;;;;;;;;;1484376;40;20043;-58
2021/07/14 04:20:11;;;;;;;3.95;2.40;;;;;;;;;;1485102;40;20048;-58
2021/07/14 04:21:12;;;;;;;5.55;2.33;;;;;;;;;;1484922;40;20029;-58
2021/07/14 04:22:14;;;;;;;5.10;2.38;;;;;;;;;;1485167;40;20033;-59
2021/07/14 04:23:15;;;;;;;4.38;2.47;;;;;;;;;;1484925;40;20021;-58
2021/07/14 04:24:17;;;;;;;5.70;2.60;;;;;;;;;;1485033;40;20032;-58
2021/07/14 04:25:18;;;;;;;5.38;2.50;;;;;;;;;;1484941;40;20021;-58
2021/07/14 04:26:20;;;;;;;4.28;2.40;;;;;;;;;;1484919;40;20020;-58
2021/07/14 04:27:21;;;;;;;5.05;2.70;;;;;;;;;;1485114;40;20025;-58
2021/07/14 04:28:24;;;;;;;3.95;2.25;;;;;;;;;;1485070;40;20037;-58
2021/07/14 04:29:25;;;;;;;4.65;2.40;;;;;;;;;;1485034;40;20021;-58
2021/07/14 04:30:27;;;;;;;3.55;2.35;;;;;;;;;;1484925;40;20021;-58
2021/07/14 04:31:28;;;;;;;3.22;2.00;;;;;;;;;;1485161;40;20025;-57
2021/07/14 04:32:30;;;;;;;4.45;2.28;;;;;;;;;;1485173;40;20029;-57
2021/07/14 04:33:31;;;;;;;2.78;2.10;;;;;;;;;;1484959;40;20036;-58
2021/07/14 04:34:32;;;;;;;3.97;2.40;;;;;;;;;;1484987;40;20021;-58
2021/07/14 04:35:35;;;;;;;5.72;2.75;;;;;;;;;;1484831;40;20025;-58
2021/07/14 04:36:37;;;;;;;6.25;2.60;;;;;;;;;;1485170;40;20035;-57
2021/07/14 04:37:38;;;;;;;4.13;2.08;;;;;;;;;;1485048;40;20029;-58
2021/07/14 04:38:40;;;;;;;4.88;2.00;;;;;;;;;;1485161;40;20296;-58
2021/07/14 04:39:41;;;;;;;5.88;2.35;;;;;;;;;;1484917;40;20029;-58
2021/07/14 04:40:43;;;;;;;3.75;1.92;;;;;;;;;;1484901;40;20029;-57
2021/07/14 04:41:44;;;;;;;4.15;2.00;;;;;;;;;;1484360;40;20025;-58
2021/07/14 04:42:45;;;;;;;4.07;2.20;;;;;;;;;;1484580;40;20028;-58
2021/07/14 04:43:46;;;;;;;4.57;2.20;;;;;;;;;;1484865;40;20024;-58
2021/07/14 04:44:50;;;;;;;3.58;2.00;;;;;;;;;;1484972;40;20024;-58
2021/07/14 04:45:51;;;;;;;4.13;1.90;;;;;;;;;;1485047;40;20411;-58
2021/07/14 04:46:53;;;;;;;3.78;2.33;;;;;;;;;;1484889;40;20040;-58
2021/07/14 04:47:54;;;;;;;4.68;1.98;;;;;;;;;;1485020;40;20025;-58
2021/07/14 04:48:56;;;;;;;3.60;2.00;;;;;;;;;;1485036;40;20288;-59
2021/07/14 04:49:57;;;;;;;4.47;2.17;;;;;;;;;;1484986;40;20244;-58
2021/07/14 04:51:00;;;;;;;3.67;2.20;;;;;;;;;;1484976;40;20043;-58
2021/07/14 04:52:03;;;;;;;4.15;2.20;;;;;;;;;;1484946;40;20025;-58
2021/07/14 04:53:04;;;;;;;6.50;2.25;;;;;;;;;;1484988;40;20028;-57
2021/07/14 04:54:05;;;;;;;4.18;2.25;;;;;;;;;;1485146;40;20044;-58
2021/07/14 04:55:08;;;;;;;5.25;2.55;;;;;;;;;;1485003;40;20393;-58
2021/07/14 04:56:09;;;;;;;4.28;2.00;;;;;;;;;;1484777;40;20025;-58
2021/07/14 04:57:11;;;;;;;6.18;2.55;;;;;;;;;;1485104;40;20044;-58
2021/07/14 04:58:12;;;;;;;5.95;2.47;;;;;;;;;;1484811;40;20035;-58
2021/07/14 04:59:14;;;;;;;4.18;1.90;;;;;;;;;;1484308;40;20032;-58
2021/07/14 05:00:16;;;;;;;5.05;2.33;;;;;;;;;;1484734;40;20120;-60
2021/07/14 05:01:19;;;;;;;5.38;2.40;;;;;;;;;;1485033;40;20055;-61
2021/07/14 05:02:20;;;;;;;3.55;2.45;;;;;;;;;;1484961;40;20411;-60
2021/07/14 05:03:23;;;;;;;3.92;2.35;;;;;;;;;;1484521;40;20025;-61
2021/07/14 05:04:24;;;;;;;4.18;2.15;;;;;;;;;;1484356;40;20025;-60
2021/07/14 05:05:26;;;;;;;4.13;2.17;;;;;;;;;;1485022;40;20024;-62
2021/07/14 05:06:28;;;;;;;4.45;2.60;;;;;;;;;;1484943;40;20114;-60
2021/07/14 05:07:30;;;;;;;5.80;2.50;;;;;;;;;;1485054;40;20029;-62
2021/07/14 05:08:31;;;;;;;5.07;2.70;;;;;;;;;;1484848;40;20032;-62
2021/07/14 05:09:33;;;;;;;5.55;2.22;;;;;;;;;;1484895;40;20288;-62
2021/07/14 05:10:34;;;;;;;6.43;2.63;;;;;;;;;;1484799;40;20032;-62
2021/07/14 05:11:36;;;;;;;5.15;2.47;;;;;;;;;;1485135;40;20036;-62
2021/07/14 05:12:37;;;;;;;4.13;2.30;;;;;;;;;;1484960;40;20388;-62
2021/07/14 05:13:39;;;;;;;3.65;2.35;;;;;;;;;;1484970;40;20025;-62
2021/07/14 05:14:40;;;;;;;7.68;2.83;;;;;;;;;;1484826;40;20028;-61
2021/07/14 05:15:43;;;;;;;6.53;2.47;;;;;;;;;;1484924;40;20027;-62
2021/07/14 05:16:44;;;;;;;4.80;2.50;;;;;;;;;;1484777;40;20029;-61
2021/07/14 05:17:46;;;;;;;5.35;2.80;;;;;;;;;;1485001;40;20037;-62
2021/07/14 05:18:47;;;;;;;6.18;2.60;;;;;;;;;;1484868;40;20025;-62
2021/07/14 05:19:48;;;;;;;7.40;2.70;;;;;;;;;;1485037;40;20025;-62
2021/07/14 05:20:50;;;;;;;4.72;2.20;;;;;;;;;;1484851;40;20320;-62
2021/07/14 05:21:53;;;;;;;4.47;2.30;;;;;;;;;;1485114;40;20037;-62
2021/07/14 05:22:54;;;;;;;5.15;2.42;;;;;;;;;;1484877;40;20026;-60
2021/07/14 05:23:55;;;;;;;6.28;2.50;;;;;;;;;;1484848;40;20036;-62
2021/07/14 05:24:56;;;;;;;4.30;2.22;;;;;;;;;;1484883;40;20025;-62
2021/07/14 05:25:59;;;;;;;4.60;2.50;;;;;;;;;;1485034;40;20384;-62
2021/07/14 05:27:01;;;;;;;5.75;2.78;;;;;;;;;;1485046;40;20021;-62
2021/07/14 05:28:03;;;;;;;4.95;2.45;;;;;;;;;;1484892;40;20025;-62
2021/07/14 05:29:05;;;;;;;7.47;2.67;;;;;;;;;;1485093;40;20028;-62
2021/07/14 05:30:07;;;;;;;5.32;2.33;;;;;;;;;;1484970;40;20028;-60
2021/07/14 05:31:09;;;;;;;4.57;2.35;;;;;;;;;;1484765;40;20025;-61
2021/07/14 05:32:10;;;;;;;4.18;2.70;;;;;;;;;;1484779;40;20032;-61
2021/07/14 05:33:11;;;;;;;4.47;2.33;;;;;;;;;;1484972;40;20044;-62
2021/07/14 05:34:12;;;;;;;4.10;2.35;;;;;;;;;;1485006;40;20032;-62
2021/07/14 05:35:14;;;;;;;3.70;2.38;;;;;;;;;;1484913;40;20028;-62
2021/07/14 05:36:16;;;;;;;3.90;2.33;;;;;;;;;;1484659;40;20029;-61
2021/07/14 05:37:20;;;;;;;5.30;2.30;;;;;;;;;;1484757;40;20021;-62
2021/07/14 05:38:21;;;;;;;5.95;2.40;;;;;;;;;;1484691;40;20041;-60
2021/07/14 05:39:23;;;;;;;5.30;2.38;;;;;;;;;;1484994;40;20036;-62
2021/07/14 05:40:24;;;;;;;3.85;2.33;;;;;;;;;;1484694;40;20029;-61
2021/07/14 05:41:26;;;;;;;5.50;2.22;;;;;;;;;;1484941;40;20033;-61
2021/07/14 05:42:27;;;;;;;4.40;2.30;;;;;;;;;;1484711;40;20025;-62
2021/07/14 05:43:29;;;;;;;5.05;2.42;;;;;;;;;;1485007;40;20032;-62
2021/07/14 05:44:30;;;;;;;3.50;2.22;;;;;;;;;;1484944;40;20021;-61
2021/07/14 05:45:32;;;;;;;4.22;2.20;;;;;;;;;;1484729;40;20041;-62
2021/07/14 05:46:33;;;;;;;4.50;1.98;;;;;;;;;;1484738;40;20025;-61
2021/07/14 05:47:35;;;;;;;5.93;2.40;;;;;;;;;;1484690;40;20105;-62
2021/07/14 05:48:35;;;;;;;4.07;2.20;;;;;;;;;;1484862;40;20103;-61
2021/07/14 05:49:37;;;;;;;5.47;2.50;;;;;;;;;;1484649;40;20349;-62
2021/07/14 05:50:38;;;;;;;7.18;2.30;;;;;;;;;;1484648;40;20024;-62
2021/07/14 05:51:40;;;;;;;5.72;2.53;;;;;;;;;;1484893;40;20025;-61
2021/07/14 05:52:43;;;;;;;6.80;2.42;;;;;;;;;;1484896;40;20028;-62
2021/07/14 05:53:44;;;;;;;5.20;2.30;;;;;;;;;;1484956;40;20021;-62
2021/07/14 05:54:45;;;;;;;4.05;2.13;;;;;;;;;;1484682;40;20403;-61
2021/07/14 05:55:47;;;;;;;6.93;2.45;;;;;;;;;;1484938;40;20028;-61
2021/07/14 05:56:48;;;;;;;3.55;2.00;;;;;;;;;;1484747;40;20025;-62
2021/07/14 05:57:51;;;;;;;4.97;2.05;;;;;;;;;;1484928;40;20025;-61
2021/07/14 05:58:52;;;;;;;5.93;2.10;;;;;;;;;;1484670;40;20024;-62
2021/07/14 05:59:54;;;;;;;3.33;2.13;;;;;;;;;;1484872;40;20102;-62
2021/07/14 06:00:55;;;;;;;5.60;2.30;;;;;;;;;;1484665;40;20044;-61
2021/07/14 06:01:57;;;;;;;4.03;2.13;;;;;;;;;;1484750;40;20032;-60
2021/07/14 06:02:57;;;;;;;4.57;2.25;;;;;;;;;;1484641;40;20092;-62
2021/07/14 06:03:59;;;;;;;6.35;2.60;;;;;;;;;;1484702;40;20344;-62
2021/07/14 06:05:00;;;;;;;6.05;2.35;;;;;;;;;;1484671;40;20266;-62
2021/07/14 06:06:02;;;;;;;4.85;2.30;;;;;;;;;;1484585;40;20027;-62
2021/07/14 06:07:04;;;;;;;4.00;2.05;;;;;;;;;;1484791;40;20045;-62
2021/07/14 06:08:08;;;;;;;4.90;2.15;;;;;;;;;;1484778;40;20090;-61
2021/07/14 06:09:09;;;;;;;3.17;2.03;;;;;;;;;;1484754;40;20033;-62
2021/07/14 06:10:12;;;;;;;3.75;2.30;;;;;;;;;;1484775;40;20396;-60
2021/07/14 06:11:13;;;;;;;4.40;2.33;;;;;;;;;;1484789;40;20025;-62
2021/07/14 06:12:15;;;;;;;6.22;2.38;;;;;;;;;;1484914;40;20037;-61
2021/07/14 06:13:16;;;;;;;4.15;2.72;;;;;;;;;;1484669;40;20025;-62
2021/07/14 06:14:18;;;;;;;5.20;2.25;;;;;;;;;;1484688;40;20028;-61
2021/07/14 06:15:18;;;;;;;5.28;2.58;;;;;;;;;;1484682;40;20021;-61
2021/07/14 06:16:20;;;;;;;4.90;2.78;;;;;;;;;;1484741;40;20087;-62
2021/07/14 06:17:21;;;;;;;5.68;2.40;;;;;;;;;;1484127;40;20025;-61
2021/07/14 06:18:23;;;;;;;5.70;2.78;;;;;;;;;;1484212;40;20061;-61
2021/07/14 06:19:25;;;;;;;5.93;2.60;;;;;;;;;;1484685;40;20024;-62
2021/07/14 06:20:27;;;;;;;4.78;2.70;;;;;;;;;;1484652;40;20328;-62
2021/07/14 06:21:28;;;;;;;6.70;2.70;;;;;;;;;;1484863;40;20033;-61
2021/07/14 06:22:30;;;;;;;4.35;2.50;;;;;;;;;;1484589;40;20024;-62
2021/07/14 06:23:32;;;;;;;6.47;2.72;;;;;;;;;;1484649;40;20020;-62
2021/07/14 06:24:34;;;;;;;5.47;2.90;;;;;;;;;;1484788;40;20041;-62